createdAt,value
2022-12-29T00:02:37.572Z,100.00
2022-12-29T00:05:24.532Z,100.00
2022-12-29T00:08:09.919Z,100.00
2022-12-29T00:10:55.518Z,100.00
2022-12-29T00:14:20.258Z,100.00
2022-12-29T00:17:08.327Z,100.00
2022-12-29T00:20:12.839Z,100.00
2022-12-29T00:23:17.850Z,100.00
2022-12-29T00:26:23.290Z,100.00
2022-12-29T00:29:28.397Z,100.00
2022-12-29T00:32:32.290Z,100.00
2022-12-29T00:35:25.372Z,100.00
2022-12-29T00:38:31.453Z,100.00
2022-12-29T00:41:35.406Z,100.00
2022-12-29T00:44:21.041Z,100.00
2022-12-29T00:47:06.473Z,100.00
2022-12-29T00:49:51.946Z,100.00
2022-12-29T00:52:37.233Z,100.00
2022-12-29T00:55:22.959Z,100.00
2022-12-29T00:58:08.709Z,100.00
2022-12-29T01:01:02.365Z,100.00
2022-12-29T01:03:47.854Z,100.00
2022-12-29T01:06:33.987Z,100.00
2022-12-29T01:09:38.464Z,100.00
2022-12-29T01:12:41.367Z,100.00
2022-12-29T01:15:26.861Z,100.00
2022-12-29T01:18:12.553Z,100.00
2022-12-29T01:21:02.596Z,100.00
2022-12-29T01:23:48.222Z,100.00
2022-12-29T01:26:33.972Z,100.00
2022-12-29T01:29:19.299Z,100.00
2022-12-29T01:32:05.211Z,100.00
2022-12-29T01:34:50.862Z,100.00
2022-12-29T01:37:36.318Z,100.00
2022-12-29T01:40:21.655Z,100.00
2022-12-29T01:43:12.024Z,100.00
2022-12-29T01:45:57.686Z,100.00
2022-12-29T01:48:44.458Z,100.00
2022-12-29T01:51:32.608Z,100.00
2022-12-29T01:54:35.536Z,100.00
2022-12-29T01:57:25.919Z,100.00
2022-12-29T02:00:14.685Z,100.00
2022-12-29T02:03:00.347Z,100.00
2022-12-29T02:05:54.944Z,100.00
2022-12-29T02:08:41.542Z,100.00
2022-12-29T02:11:29.450Z,100.00
2022-12-29T02:14:15.259Z,100.00
2022-12-29T02:17:33.209Z,100.00
2022-12-29T02:20:52.994Z,100.00
2022-12-29T02:24:02.709Z,100.00
2022-12-29T02:27:05.846Z,100.00
2022-12-29T02:30:26.923Z,100.00
2022-12-29T02:33:31.074Z,100.00
2022-12-29T02:36:23.534Z,100.00
2022-12-29T02:39:41.570Z,100.00
2022-12-29T02:42:36.174Z,100.00
2022-12-29T02:45:31.133Z,100.00
2022-12-29T02:48:33.677Z,100.00
2022-12-29T02:51:29.652Z,100.00
2022-12-29T02:54:37.496Z,100.00
2022-12-29T02:57:23.067Z,100.00
2022-12-29T03:00:13.423Z,100.00
2022-12-29T03:03:23.998Z,100.00
2022-12-29T03:06:31.351Z,100.00
2022-12-29T03:09:44.649Z,100.00
2022-12-29T03:13:11.861Z,100.00
2022-12-29T03:16:28.763Z,100.00
2022-12-29T03:19:24.319Z,100.00
2022-12-29T03:22:28.697Z,100.00
2022-12-29T03:25:26.336Z,100.00
2022-12-29T03:28:17.235Z,100.00
2022-12-29T03:31:05.390Z,100.00
2022-12-29T03:33:52.300Z,100.00
2022-12-29T03:36:45.497Z,100.00
2022-12-29T03:39:32.173Z,100.00
2022-12-29T03:42:22.420Z,100.00
2022-12-29T03:45:10.108Z,100.00
2022-12-29T03:47:55.978Z,100.00
2022-12-29T03:50:41.874Z,100.00
2022-12-29T03:53:27.435Z,100.00
2022-12-29T03:56:13.062Z,100.00
2022-12-29T03:58:58.168Z,100.00
2022-12-29T04:01:43.757Z,100.00
2022-12-29T04:04:29.431Z,100.00
2022-12-29T04:07:14.702Z,100.00
2022-12-29T04:10:00.244Z,100.00
2022-12-29T04:12:47.456Z,100.00
2022-12-29T04:15:33.151Z,100.00
2022-12-29T04:18:18.734Z,100.00
2022-12-29T04:21:05.363Z,100.00
2022-12-29T04:23:50.979Z,100.00
2022-12-29T04:26:36.271Z,100.00
2022-12-29T04:29:22.085Z,100.00
2022-12-29T04:32:07.244Z,100.00
2022-12-29T04:34:52.902Z,100.00
2022-12-29T04:37:38.324Z,100.00
2022-12-29T04:40:24.269Z,100.00
2022-12-29T04:43:10.844Z,100.00
2022-12-29T04:45:56.297Z,100.00
2022-12-29T04:48:42.195Z,100.00
2022-12-29T04:51:27.527Z,100.00
2022-12-29T04:54:12.835Z,100.00
2022-12-29T04:56:58.426Z,100.00
2022-12-29T04:59:43.677Z,100.00
2022-12-29T05:02:29.519Z,100.00
2022-12-29T05:05:15.177Z,100.00
2022-12-29T05:08:00.513Z,100.00
2022-12-29T05:10:46.685Z,100.00
2022-12-29T05:13:32.226Z,100.00
2022-12-29T05:16:17.751Z,100.00
2022-12-29T05:19:04.456Z,100.00
2022-12-29T05:21:49.852Z,100.00
2022-12-29T05:24:35.435Z,100.00
2022-12-29T05:27:21.109Z,100.00
2022-12-29T05:30:07.361Z,100.00
2022-12-29T05:32:53.292Z,100.00
2022-12-29T05:35:38.517Z,100.00
2022-12-29T05:38:24.412Z,100.00
2022-12-29T05:41:10.448Z,100.00
2022-12-29T05:43:55.984Z,100.00
2022-12-29T05:46:41.735Z,100.00
2022-12-29T05:49:27.007Z,100.00
2022-12-29T05:52:12.768Z,100.00
2022-12-29T05:54:58.122Z,100.00
2022-12-29T05:57:43.698Z,100.00
2022-12-29T06:00:29.243Z,100.00
2022-12-29T06:03:14.887Z,100.00
2022-12-29T06:06:00.454Z,100.00
2022-12-29T06:08:45.920Z,100.00
2022-12-29T06:11:31.467Z,100.00
2022-12-29T06:14:17.068Z,100.00
2022-12-29T06:17:02.718Z,100.00
2022-12-29T06:19:48.337Z,100.00
2022-12-29T06:22:33.672Z,100.00
2022-12-29T06:25:19.279Z,100.00
2022-12-29T06:28:06.245Z,100.00
2022-12-29T06:30:51.616Z,100.00
2022-12-29T06:33:38.386Z,100.00
2022-12-29T06:36:24.083Z,100.00
2022-12-29T06:39:10.910Z,100.00
2022-12-29T06:41:56.286Z,100.00
2022-12-29T06:44:41.665Z,100.00
2022-12-29T06:47:27.709Z,100.00
2022-12-29T06:50:13.373Z,100.00
2022-12-29T06:52:58.772Z,100.00
2022-12-29T06:55:44.388Z,100.00
2022-12-29T06:58:30.048Z,100.00
2022-12-29T07:01:15.851Z,100.00
2022-12-29T07:04:01.521Z,100.00
2022-12-29T07:06:46.803Z,100.00
2022-12-29T07:09:32.559Z,100.00
2022-12-29T07:12:17.958Z,100.00
2022-12-29T07:15:03.638Z,100.00
2022-12-29T07:17:50.487Z,100.00
2022-12-29T07:20:36.030Z,100.00
2022-12-29T07:23:21.645Z,100.00
2022-12-29T07:26:10.490Z,100.00
2022-12-29T07:28:56.101Z,100.00
2022-12-29T07:31:41.684Z,100.00
2022-12-29T07:34:27.210Z,100.00
2022-12-29T07:37:12.916Z,100.00
2022-12-29T07:39:58.290Z,100.00
2022-12-29T07:42:43.764Z,100.00
2022-12-29T07:45:29.869Z,100.00
2022-12-29T07:48:15.378Z,100.00
2022-12-29T07:51:01.054Z,100.00
2022-12-29T07:53:46.414Z,100.00
2022-12-29T07:56:31.892Z,100.00
2022-12-29T07:59:18.093Z,100.00
2022-12-29T08:02:03.735Z,100.00
2022-12-29T08:04:49.408Z,100.00
2022-12-29T08:07:34.735Z,100.00
2022-12-29T08:10:20.294Z,100.00
2022-12-29T08:13:05.896Z,100.00
2022-12-29T08:15:51.635Z,100.00
2022-12-29T08:18:37.098Z,100.00
2022-12-29T08:21:22.742Z,100.00
2022-12-29T08:24:09.248Z,100.00
2022-12-29T08:26:55.140Z,100.00
2022-12-29T08:29:40.889Z,100.00
2022-12-29T08:32:27.452Z,100.00
2022-12-29T08:35:13.727Z,100.00
2022-12-29T08:37:59.272Z,100.00
2022-12-29T08:40:44.985Z,100.00
2022-12-29T08:43:31.511Z,100.00
2022-12-29T08:46:17.882Z,100.00
2022-12-29T08:49:03.527Z,100.00
2022-12-29T08:51:48.867Z,100.00
2022-12-29T08:54:34.199Z,100.00
2022-12-29T08:57:19.637Z,100.00
2022-12-29T09:00:05.717Z,100.00
2022-12-29T09:02:51.390Z,100.00
2022-12-29T09:05:36.938Z,100.00
2022-12-29T09:08:26.158Z,100.00
2022-12-29T09:11:18.977Z,100.00
2022-12-29T09:14:05.064Z,100.00
2022-12-29T09:17:11.557Z,100.00
2022-12-29T09:19:57.442Z,100.00
2022-12-29T09:22:43.694Z,100.00
2022-12-29T09:25:29.431Z,100.00
2022-12-29T09:28:14.926Z,96.07
2022-12-29T09:31:01.364Z,93.88
2022-12-29T09:33:47.532Z,99.00
2022-12-29T09:36:32.693Z,98.17
2022-12-29T09:39:18.343Z,100.00
2022-12-29T09:42:47.433Z,100.00
2022-12-29T09:45:46.476Z,100.00
2022-12-29T09:48:38.320Z,100.00
2022-12-29T09:51:26.251Z,100.00
2022-12-29T09:54:30.963Z,100.00
2022-12-29T09:57:22.404Z,100.00
2022-12-29T10:00:21.600Z,100.00
2022-12-29T10:03:16.982Z,100.00
2022-12-29T10:06:14.717Z,100.00
2022-12-29T10:09:47.104Z,100.00
2022-12-29T10:12:40.885Z,97.77
2022-12-29T10:15:49.832Z,92.14
2022-12-29T10:18:56.020Z,85.72
2022-12-29T10:22:03.830Z,81.79
2022-12-29T10:24:52.049Z,74.16
2022-12-29T10:27:38.169Z,74.07
2022-12-29T10:30:24.489Z,79.55
2022-12-29T10:33:19.236Z,74.84
2022-12-29T10:36:22.400Z,68.03
2022-12-29T10:39:19.780Z,66.78
2022-12-29T10:42:10.321Z,63.59
2022-12-29T10:44:58.225Z,59.86
2022-12-29T10:47:54.496Z,61.65
2022-12-29T10:50:43.755Z,59.12
2022-12-29T10:53:46.141Z,58.06
2022-12-29T10:56:36.359Z,57.35
2022-12-29T10:59:24.663Z,55.07
2022-12-29T11:02:10.398Z,55.41
2022-12-29T11:05:09.829Z,53.75
2022-12-29T11:08:01.097Z,52.65
2022-12-29T11:10:47.158Z,55.28
2022-12-29T11:13:39.207Z,57.62
2022-12-29T11:16:31.729Z,60.63
2022-12-29T11:19:26.037Z,63.27
2022-12-29T11:22:22.617Z,63.48
2022-12-29T11:25:13.771Z,61.05
2022-12-29T11:28:14.964Z,57.03
2022-12-29T11:31:02.506Z,54.23
2022-12-29T11:33:47.996Z,53.87
2022-12-29T11:36:36.256Z,52.25
2022-12-29T11:39:30.552Z,51.84
2022-12-29T11:42:18.569Z,51.93
2022-12-29T11:45:25.464Z,51.40
2022-12-29T11:48:19.466Z,51.12
2022-12-29T11:51:05.325Z,50.69
2022-12-29T11:53:54.168Z,50.87
2022-12-29T11:56:44.565Z,51.93
2022-12-29T11:59:35.209Z,52.11
2022-12-29T12:02:38.827Z,52.15
2022-12-29T12:05:45.837Z,49.47
2022-12-29T12:08:39.492Z,47.67
2022-12-29T12:11:37.345Z,49.57
2022-12-29T12:14:26.476Z,56.50
2022-12-29T12:17:25.787Z,61.66
2022-12-29T12:20:39.433Z,59.03
2022-12-29T12:23:37.827Z,59.31
2022-12-29T12:26:33.378Z,63.18
2022-12-29T12:29:43.951Z,65.69
2022-12-29T12:32:47.265Z,66.34
2022-12-29T12:35:50.217Z,63.55
2022-12-29T12:38:50.743Z,63.15
2022-12-29T12:41:58.372Z,64.50
2022-12-29T12:44:59.957Z,64.64
2022-12-29T12:47:54.088Z,69.42
2022-12-29T12:50:59.150Z,69.80
2022-12-29T12:54:24.127Z,69.53
2022-12-29T12:57:35.521Z,74.32
2022-12-29T13:00:24.155Z,73.34
2022-12-29T13:03:18.364Z,75.47
2022-12-29T13:06:25.243Z,74.65
2022-12-29T13:09:23.659Z,75.16
2022-12-29T13:12:23.034Z,75.58
2022-12-29T13:15:42.160Z,73.85
2022-12-29T13:18:45.196Z,75.04
2022-12-29T13:22:06.008Z,77.35
2022-12-29T13:25:42.700Z,81.71
2022-12-29T13:28:46.750Z,86.33
2022-12-29T13:31:45.553Z,85.92
2022-12-29T13:34:54.352Z,84.14
2022-12-29T13:37:51.937Z,83.82
2022-12-29T13:40:44.136Z,83.36
2022-12-29T13:43:32.569Z,82.77
2022-12-29T13:46:36.539Z,82.95
2022-12-29T13:49:25.400Z,82.55
2022-12-29T13:52:22.242Z,83.19
2022-12-29T13:55:21.025Z,82.29
2022-12-29T13:58:35.868Z,81.86
2022-12-29T14:01:35.278Z,82.21
2022-12-29T14:04:29.638Z,83.99
2022-12-29T14:07:18.427Z,82.19
2022-12-29T14:10:04.273Z,83.31
2022-12-29T14:12:50.784Z,84.95
2022-12-29T14:15:42.080Z,84.69
2022-12-29T14:18:31.754Z,86.45
2022-12-29T14:21:17.518Z,86.46
2022-12-29T14:24:41.063Z,85.89
2022-12-29T14:27:29.107Z,86.40
2022-12-29T14:30:50.670Z,84.37
2022-12-29T14:33:36.399Z,85.75
2022-12-29T14:36:27.654Z,85.83
2022-12-29T14:39:33.981Z,87.32
2022-12-29T14:42:23.584Z,86.87
2022-12-29T14:45:29.581Z,87.71
2022-12-29T14:48:33.914Z,89.02
2022-12-29T14:51:30.259Z,88.22
2022-12-29T14:54:33.893Z,89.12
2022-12-29T14:57:38.819Z,89.79
2022-12-29T15:00:28.247Z,90.44
2022-12-29T15:03:17.831Z,93.94
2022-12-29T15:06:12.236Z,93.17
2022-12-29T15:09:30.542Z,94.24
2022-12-29T15:12:34.112Z,94.04
2022-12-29T15:15:28.001Z,96.26
2022-12-29T15:18:34.685Z,97.75
2022-12-29T15:21:26.769Z,100.00
2022-12-29T15:24:12.188Z,99.36
2022-12-29T15:26:57.468Z,98.20
2022-12-29T15:29:47.449Z,96.60
2022-12-29T15:32:45.186Z,95.76
2022-12-29T15:35:35.581Z,94.46
2022-12-29T15:38:33.434Z,95.95
2022-12-29T15:42:00.444Z,93.71
2022-12-29T15:44:46.724Z,93.23
2022-12-29T15:47:33.271Z,92.51
2022-12-29T15:50:29.268Z,93.36
2022-12-29T15:53:29.157Z,97.56
2022-12-29T15:56:15.128Z,100.00
2022-12-29T15:59:01.500Z,100.00
2022-12-29T16:01:47.521Z,100.00
2022-12-29T16:04:43.229Z,100.00
2022-12-29T16:07:41.977Z,100.00
2022-12-29T16:10:39.720Z,100.00
2022-12-29T16:13:29.650Z,100.00
2022-12-29T16:16:20.118Z,100.00
2022-12-29T16:19:14.787Z,100.00
2022-12-29T16:22:01.806Z,100.00
2022-12-29T16:24:47.489Z,100.00
2022-12-29T16:27:41.845Z,100.00
2022-12-29T16:30:33.882Z,100.00
2022-12-29T16:33:47.597Z,100.00
2022-12-29T16:36:34.418Z,100.00
2022-12-29T16:39:24.725Z,100.00
2022-12-29T16:42:50.619Z,100.00
2022-12-29T16:45:46.514Z,100.00
2022-12-29T16:48:46.385Z,100.00
2022-12-29T16:51:35.869Z,100.00
2022-12-29T16:54:25.286Z,100.00
2022-12-29T16:57:12.016Z,100.00
2022-12-29T17:00:02.074Z,99.08
2022-12-29T17:02:50.360Z,98.38
2022-12-29T17:05:35.804Z,98.97
2022-12-29T17:08:23.786Z,97.32
2022-12-29T17:11:51.346Z,97.17
2022-12-29T17:14:53.613Z,98.31
2022-12-29T17:17:40.684Z,99.49
2022-12-29T17:20:29.515Z,100.00
2022-12-29T17:23:21.132Z,100.00
2022-12-29T17:26:11.091Z,100.00
2022-12-29T17:28:56.314Z,100.00
2022-12-29T17:31:41.737Z,100.00
2022-12-29T17:34:27.473Z,100.00
2022-12-29T17:37:24.653Z,100.00
2022-12-29T17:40:18.885Z,100.00
2022-12-29T17:43:04.648Z,100.00
2022-12-29T17:45:55.133Z,100.00
2022-12-29T17:48:40.686Z,100.00
2022-12-29T17:51:26.244Z,100.00
2022-12-29T17:54:21.147Z,100.00
2022-12-29T17:57:06.531Z,100.00
2022-12-29T17:59:52.282Z,100.00
2022-12-29T18:02:38.188Z,100.00
2022-12-29T18:05:26.521Z,100.00
2022-12-29T18:08:12.598Z,100.00
2022-12-29T18:10:58.845Z,100.00
2022-12-29T18:13:47.084Z,100.00
2022-12-29T18:16:32.795Z,100.00
2022-12-29T18:19:18.193Z,100.00
2022-12-29T18:22:03.669Z,100.00
2022-12-29T18:24:49.624Z,100.00
2022-12-29T18:27:35.081Z,100.00
2022-12-29T18:30:20.624Z,100.00
2022-12-29T18:33:06.414Z,100.00
2022-12-29T18:35:57.025Z,100.00
2022-12-29T18:38:43.361Z,100.00
2022-12-29T18:41:32.339Z,100.00
2022-12-29T18:44:17.931Z,100.00
2022-12-29T18:47:03.686Z,100.00
2022-12-29T18:49:49.071Z,100.00
2022-12-29T18:52:34.420Z,100.00
2022-12-29T18:55:22.951Z,100.00
2022-12-29T18:58:08.518Z,100.00
2022-12-29T19:00:54.557Z,100.00
2022-12-29T19:03:40.174Z,100.00
2022-12-29T19:06:25.618Z,100.00
2022-12-29T19:09:11.010Z,100.00
2022-12-29T19:11:56.418Z,100.00
2022-12-29T19:14:41.821Z,100.00
2022-12-29T19:17:27.616Z,100.00
2022-12-29T19:20:34.269Z,100.00
2022-12-29T19:23:22.449Z,100.00
2022-12-29T19:26:27.139Z,100.00
2022-12-29T19:29:15.611Z,100.00
2022-12-29T19:32:01.371Z,100.00
2022-12-29T19:34:48.704Z,100.00
2022-12-29T19:37:36.304Z,100.00
2022-12-29T19:40:25.530Z,100.00
2022-12-29T19:43:12.242Z,100.00
2022-12-29T19:45:57.714Z,100.00
2022-12-29T19:48:43.293Z,100.00
2022-12-29T19:51:28.669Z,100.00
2022-12-29T19:54:14.281Z,100.00
2022-12-29T19:56:59.965Z,100.00
2022-12-29T19:59:45.536Z,100.00
2022-12-29T20:02:34.863Z,100.00
2022-12-29T20:05:20.475Z,100.00
2022-12-29T20:08:06.301Z,100.00
2022-12-29T20:11:02.343Z,100.00
2022-12-29T20:13:48.391Z,100.00
2022-12-29T20:16:38.374Z,100.00
2022-12-29T20:19:30.459Z,100.00
2022-12-29T20:22:16.128Z,100.00
2022-12-29T20:25:34.454Z,100.00
2022-12-29T20:28:06.708Z,100.00
2022-12-29T20:31:03.821Z,100.00
2022-12-29T20:33:49.365Z,100.00
2022-12-29T20:36:36.985Z,100.00
2022-12-29T20:39:22.647Z,100.00
2022-12-29T20:42:08.185Z,100.00
2022-12-29T20:44:53.524Z,100.00
2022-12-29T20:47:38.914Z,100.00
2022-12-29T20:50:24.195Z,100.00
2022-12-29T20:53:10.684Z,100.00
2022-12-29T20:56:01.330Z,100.00
2022-12-29T20:59:25.405Z,100.00
2022-12-29T21:01:53.431Z,100.00
2022-12-29T21:05:21.690Z,100.00
2022-12-29T21:07:44.972Z,100.00
2022-12-29T21:10:30.883Z,100.00
2022-12-29T21:13:17.440Z,100.00
2022-12-29T21:16:06.049Z,100.00
2022-12-29T21:18:51.599Z,100.00
2022-12-29T21:21:37.415Z,100.00
2022-12-29T21:24:22.865Z,100.00
2022-12-29T21:27:08.423Z,100.00
2022-12-29T21:29:54.134Z,100.00
2022-12-29T21:32:41.396Z,100.00
2022-12-29T21:35:26.911Z,100.00
2022-12-29T21:38:12.978Z,100.00
2022-12-29T21:41:10.185Z,100.00
2022-12-29T21:44:14.185Z,100.00
2022-12-29T21:46:59.917Z,100.00
2022-12-29T21:49:45.288Z,100.00
2022-12-29T21:52:30.849Z,100.00
2022-12-29T21:55:16.093Z,100.00
2022-12-29T21:58:20.251Z,100.00
2022-12-29T22:01:24.354Z,100.00
2022-12-29T22:04:32.853Z,100.00
2022-12-29T22:07:36.852Z,100.00
2022-12-29T22:10:40.955Z,100.00
2022-12-29T22:13:26.591Z,100.00
2022-12-29T22:16:12.574Z,100.00
2022-12-29T22:18:58.235Z,100.00
2022-12-29T22:21:43.884Z,100.00
2022-12-29T22:24:29.158Z,100.00
2022-12-29T22:27:14.424Z,100.00
2022-12-29T22:30:00.100Z,100.00
2022-12-29T22:32:45.715Z,100.00
2022-12-29T22:35:31.158Z,100.00
2022-12-29T22:38:16.584Z,100.00
2022-12-29T22:41:02.012Z,100.00
2022-12-29T22:43:47.666Z,100.00
2022-12-29T22:46:33.215Z,100.00
2022-12-29T22:49:18.632Z,100.00
2022-12-29T22:52:04.865Z,100.00
2022-12-29T22:54:50.256Z,100.00
2022-12-29T22:57:36.396Z,100.00
2022-12-29T23:00:22.382Z,100.00
2022-12-29T23:03:08.250Z,100.00
2022-12-29T23:05:58.627Z,100.00
2022-12-29T23:08:44.481Z,100.00
2022-12-29T23:11:30.343Z,100.00
2022-12-29T23:14:17.280Z,100.00
2022-12-29T23:17:02.730Z,100.00
2022-12-29T23:19:48.466Z,100.00
2022-12-29T23:22:34.040Z,100.00
2022-12-29T23:25:19.463Z,100.00
2022-12-29T23:28:07.957Z,100.00
2022-12-29T23:30:53.380Z,100.00
2022-12-29T23:33:38.712Z,100.00
2022-12-29T23:36:24.688Z,100.00
2022-12-29T23:39:17.919Z,100.00
2022-12-29T23:42:03.447Z,100.00
2022-12-29T23:44:48.836Z,100.00
2022-12-29T23:47:34.424Z,100.00
2022-12-29T23:50:19.904Z,100.00
2022-12-29T23:53:05.353Z,100.00
2022-12-29T23:55:54.682Z,100.00
2022-12-29T23:58:40.168Z,100.00
